createdAt,value
2023-02-01T00:00:53.678Z,25.91
2023-02-01T00:01:53.684Z,25.88
2023-02-01T00:02:53.704Z,25.90
2023-02-01T00:03:53.757Z,25.88
2023-02-01T00:04:53.675Z,25.91
2023-02-01T00:05:53.680Z,25.92
2023-02-01T00:06:53.670Z,25.85
2023-02-01T00:07:53.683Z,25.94
2023-02-01T00:08:53.673Z,25.88
2023-02-01T00:09:53.674Z,25.85
2023-02-01T00:10:53.674Z,25.87
2023-02-01T00:11:53.672Z,25.88
2023-02-01T00:12:53.675Z,25.87
2023-02-01T00:13:53.670Z,25.92
2023-02-01T00:14:53.662Z,25.90
2023-02-01T00:15:53.730Z,25.87
2023-02-01T00:16:53.663Z,25.88
2023-02-01T00:17:53.666Z,25.92
2023-02-01T00:18:53.662Z,25.91
2023-02-01T00:19:53.665Z,25.88
2023-02-01T00:20:53.658Z,25.88
2023-02-01T00:21:53.663Z,25.90
2023-02-01T00:22:53.654Z,25.88
2023-02-01T00:23:53.659Z,25.91
2023-02-01T00:24:53.650Z,25.88
2023-02-01T00:25:53.658Z,25.85
2023-02-01T00:26:53.717Z,25.90
2023-02-01T00:27:53.663Z,25.85
2023-02-01T00:28:53.651Z,25.88
2023-02-01T00:29:53.653Z,25.90
2023-02-01T00:30:53.747Z,25.94
2023-02-01T00:31:53.773Z,25.83
2023-02-01T00:32:53.642Z,25.95
2023-02-01T00:33:53.648Z,25.88
2023-02-01T00:34:53.640Z,25.83
2023-02-01T00:35:53.656Z,25.80
2023-02-01T00:36:53.642Z,25.87
2023-02-01T00:37:53.658Z,25.92
2023-02-01T00:38:53.636Z,25.87
2023-02-01T00:39:53.643Z,25.83
2023-02-01T00:40:53.632Z,25.85
2023-02-01T00:41:53.653Z,25.85
2023-02-01T00:42:53.632Z,25.88
2023-02-01T00:43:53.648Z,25.92
2023-02-01T00:44:53.634Z,25.87
2023-02-01T00:45:53.633Z,25.87
2023-02-01T00:46:53.726Z,25.85
2023-02-01T00:47:53.654Z,25.88
2023-02-01T00:48:53.644Z,25.90
2023-02-01T00:49:53.635Z,25.85
2023-02-01T00:50:53.621Z,25.87
2023-02-01T00:51:53.627Z,25.85
2023-02-01T00:52:53.625Z,25.88
2023-02-01T00:53:53.626Z,25.87
2023-02-01T00:54:53.643Z,25.87
2023-02-01T00:55:53.626Z,25.82
2023-02-01T00:56:53.627Z,25.87
2023-02-01T00:57:53.651Z,25.87
2023-02-01T00:58:53.614Z,25.88
2023-02-01T00:59:53.618Z,25.83
2023-02-01T01:00:53.661Z,25.85
2023-02-01T01:01:53.645Z,25.83
2023-02-01T01:02:53.608Z,25.83
2023-02-01T01:03:53.663Z,25.85
2023-02-01T01:04:53.616Z,25.91
2023-02-01T01:05:53.615Z,25.88
2023-02-01T01:06:53.614Z,25.82
2023-02-01T01:07:53.615Z,25.79
2023-02-01T01:08:53.611Z,25.90
2023-02-01T01:09:53.617Z,25.88
2023-02-01T01:10:53.606Z,25.82
2023-02-01T01:11:53.609Z,25.87
2023-02-01T01:12:53.599Z,25.82
2023-02-01T01:13:53.605Z,25.80
2023-02-01T01:14:53.599Z,25.88
2023-02-01T01:15:53.636Z,25.83
2023-02-01T01:16:53.606Z,25.83
2023-02-01T01:17:53.602Z,25.77
2023-02-01T01:18:53.594Z,25.87
2023-02-01T01:19:53.624Z,25.88
2023-02-01T01:20:53.590Z,25.87
2023-02-01T01:21:53.608Z,25.79
2023-02-01T01:22:53.587Z,25.82
2023-02-01T01:23:53.599Z,25.83
2023-02-01T01:24:53.591Z,25.83
2023-02-01T01:25:53.593Z,25.87
2023-02-01T01:26:53.642Z,25.87
2023-02-01T01:27:53.589Z,25.87
2023-02-01T01:28:53.732Z,25.83
2023-02-01T01:29:53.591Z,25.85
2023-02-01T01:30:53.728Z,25.91
2023-02-01T01:31:53.661Z,25.83
2023-02-01T01:32:53.589Z,25.85
2023-02-01T01:33:53.591Z,25.85
2023-02-01T01:34:53.578Z,25.87
2023-02-01T01:35:53.607Z,25.83
2023-02-01T01:36:53.572Z,25.83
2023-02-01T01:37:53.584Z,25.83
2023-02-01T01:38:53.571Z,25.85
2023-02-01T01:39:53.576Z,25.82
2023-02-01T01:40:53.570Z,25.87
2023-02-01T01:41:53.575Z,25.85
2023-02-01T01:42:53.566Z,25.82
2023-02-01T01:43:53.579Z,25.82
2023-02-01T01:44:53.567Z,25.85
2023-02-01T01:45:53.570Z,25.87
2023-02-01T01:46:53.591Z,25.90
2023-02-01T01:47:53.572Z,25.85
2023-02-01T01:48:53.560Z,25.91
2023-02-01T01:49:53.566Z,25.80
2023-02-01T01:50:53.555Z,25.90
2023-02-01T01:51:53.590Z,25.85
2023-02-01T01:52:53.554Z,25.83
2023-02-01T01:53:53.562Z,25.79
2023-02-01T01:54:53.554Z,25.83
2023-02-01T01:55:53.557Z,25.87
2023-02-01T01:56:53.565Z,25.87
2023-02-01T01:57:53.557Z,25.85
2023-02-01T01:58:53.549Z,25.83
2023-02-01T01:59:53.555Z,25.90
2023-02-01T02:00:53.571Z,25.80
2023-02-01T02:01:53.679Z,25.80
2023-02-01T02:02:53.549Z,25.82
2023-02-01T02:03:53.548Z,25.85
2023-02-01T02:04:53.541Z,25.80
2023-02-01T02:05:53.548Z,25.80
2023-02-01T02:06:53.537Z,25.87
2023-02-01T02:07:53.629Z,25.75
2023-02-01T02:08:53.535Z,25.79
2023-02-01T02:10:00.644Z,25.82
2023-02-01T02:10:53.533Z,25.82
2023-02-01T02:11:53.541Z,25.79
2023-02-01T02:12:53.532Z,25.91
2023-02-01T02:13:53.541Z,25.80
2023-02-01T02:14:53.540Z,25.83
2023-02-01T02:15:53.536Z,25.87
2023-02-01T02:16:53.526Z,25.83
2023-02-01T02:17:53.537Z,25.87
2023-02-01T02:18:53.528Z,25.87
2023-02-01T02:19:53.537Z,25.90
2023-02-01T02:20:53.525Z,25.80
2023-02-01T02:21:53.529Z,25.87
2023-02-01T02:22:53.521Z,25.91
2023-02-01T02:23:53.553Z,25.91
2023-02-01T02:24:53.519Z,25.76
2023-02-01T02:25:53.525Z,25.77
2023-02-01T02:26:53.556Z,25.87
2023-02-01T02:27:53.528Z,25.82
2023-02-01T02:28:53.517Z,25.87
2023-02-01T02:29:53.523Z,25.77
2023-02-01T02:30:53.584Z,25.90
2023-02-01T02:31:53.594Z,25.87
2023-02-01T02:32:53.510Z,25.75
2023-02-01T02:33:53.529Z,25.77
2023-02-01T02:34:53.517Z,25.75
2023-02-01T02:35:53.520Z,25.82
2023-02-01T02:36:53.506Z,25.83
2023-02-01T02:37:53.512Z,25.79
2023-02-01T02:38:53.502Z,25.79
2023-02-01T02:39:53.545Z,25.91
2023-02-01T02:40:53.525Z,25.79
2023-02-01T02:41:53.513Z,25.85
2023-02-01T02:42:53.501Z,25.79
2023-02-01T02:43:53.524Z,25.80
2023-02-01T02:44:53.499Z,25.90
2023-02-01T02:45:53.538Z,25.83
2023-02-01T02:46:53.492Z,25.82
2023-02-01T02:47:53.499Z,25.83
2023-02-01T02:48:53.502Z,25.87
2023-02-01T02:49:53.509Z,25.87
2023-02-01T02:50:53.495Z,25.85
2023-02-01T02:51:53.494Z,25.85
2023-02-01T02:52:53.488Z,25.92
2023-02-01T02:53:53.494Z,25.80
2023-02-01T02:54:53.484Z,25.82
2023-02-01T02:55:53.542Z,25.77
2023-02-01T02:56:53.492Z,25.80
2023-02-01T02:57:53.487Z,25.82
2023-02-01T02:58:53.489Z,25.77
2023-02-01T02:59:53.477Z,25.77
2023-02-01T03:00:53.529Z,25.82
2023-02-01T03:01:53.505Z,25.85
2023-02-01T03:02:53.619Z,25.80
2023-02-01T03:03:53.475Z,25.77
2023-02-01T03:04:53.489Z,25.85
2023-02-01T03:05:53.475Z,25.77
2023-02-01T03:06:53.493Z,25.83
2023-02-01T03:07:53.472Z,25.82
2023-02-01T03:08:53.511Z,25.90
2023-02-01T03:09:53.495Z,25.83
2023-02-01T03:10:53.522Z,25.83
2023-02-01T03:11:53.524Z,25.77
2023-02-01T03:12:53.494Z,25.75
2023-02-01T03:13:53.467Z,25.83
2023-02-01T03:14:53.503Z,25.87
2023-02-01T03:15:53.479Z,25.73
2023-02-01T03:16:53.574Z,25.77
2023-02-01T03:17:53.466Z,25.82
2023-02-01T03:18:53.504Z,25.87
2023-02-01T03:19:53.493Z,25.87
2023-02-01T03:20:53.519Z,25.80
2023-02-01T03:22:32.281Z,25.87
2023-02-01T03:23:32.283Z,25.83
2023-02-01T03:24:32.277Z,25.73
2023-02-01T03:25:32.270Z,25.79
2023-02-01T03:26:32.324Z,25.82
2023-02-01T03:27:32.304Z,25.79
2023-02-01T03:28:32.272Z,25.79
2023-02-01T03:29:32.265Z,25.77
2023-02-01T03:30:32.271Z,25.75
2023-02-01T03:31:32.290Z,25.80
2023-02-01T03:32:32.268Z,25.79
2023-02-01T03:33:32.258Z,25.75
2023-02-01T03:34:32.270Z,25.82
2023-02-01T03:35:32.266Z,25.69
2023-02-01T03:36:32.264Z,25.79
2023-02-01T03:37:32.255Z,25.82
2023-02-01T03:38:32.273Z,25.83
2023-02-01T03:39:32.296Z,25.91
2023-02-01T03:40:32.263Z,25.82
2023-02-01T03:41:32.272Z,25.79
2023-02-01T03:42:32.257Z,25.83
2023-02-01T03:43:32.289Z,25.77
2023-02-01T03:44:32.269Z,25.80
2023-02-01T03:45:32.350Z,25.79
2023-02-01T03:46:32.252Z,25.83
2023-02-01T03:47:32.241Z,25.83
2023-02-01T03:48:32.252Z,25.79
2023-02-01T03:49:32.241Z,25.77
2023-02-01T03:50:32.248Z,25.79
2023-02-01T03:51:32.315Z,25.82
2023-02-01T03:52:32.260Z,25.75
2023-02-01T03:53:32.240Z,25.82
2023-02-01T03:54:32.244Z,25.77
2023-02-01T03:55:32.235Z,25.79
2023-02-01T03:56:32.240Z,25.77
2023-02-01T03:57:32.247Z,25.80
2023-02-01T03:58:32.243Z,25.79
2023-02-01T03:59:32.255Z,25.82
2023-02-01T04:00:32.250Z,25.80
2023-02-01T04:01:32.288Z,25.80
2023-02-01T04:02:32.275Z,25.77
2023-02-01T04:03:32.234Z,25.79
2023-02-01T04:04:32.233Z,25.79
2023-02-01T04:05:32.230Z,25.80
2023-02-01T04:06:32.237Z,25.82
2023-02-01T04:07:32.236Z,25.73
2023-02-01T04:08:32.229Z,25.73
2023-02-01T04:09:32.229Z,25.76
2023-02-01T04:10:32.229Z,25.79
2023-02-01T04:11:32.213Z,25.76
2023-02-01T04:12:32.225Z,25.75
2023-02-01T04:13:32.216Z,25.83
2023-02-01T04:14:32.220Z,25.76
2023-02-01T04:15:32.280Z,25.76
2023-02-01T04:16:32.313Z,25.82
2023-02-01T04:17:32.211Z,25.79
2023-02-01T04:18:32.221Z,25.76
2023-02-01T04:19:32.214Z,25.82
2023-02-01T04:20:32.230Z,25.79
2023-02-01T04:21:32.210Z,25.77
2023-02-01T04:22:32.213Z,25.79
2023-02-01T04:23:32.200Z,25.75
2023-02-01T04:24:32.215Z,25.79
2023-02-01T04:25:32.210Z,25.80
2023-02-01T04:26:32.257Z,25.75
2023-02-01T04:27:32.200Z,25.83
2023-02-01T04:28:32.207Z,25.80
2023-02-01T04:29:32.201Z,25.82
2023-02-01T04:30:32.313Z,25.82
2023-02-01T04:31:32.337Z,25.73
2023-02-01T04:32:32.227Z,25.80
2023-02-01T04:33:32.189Z,25.79
2023-02-01T04:34:32.198Z,25.80
2023-02-01T04:35:32.221Z,25.83
2023-02-01T04:36:32.203Z,25.83
2023-02-01T04:37:32.184Z,25.77
2023-02-01T04:38:32.191Z,25.77
2023-02-01T04:39:32.186Z,25.77
2023-02-01T04:40:32.198Z,25.77
2023-02-01T04:41:32.182Z,25.82
2023-02-01T04:42:32.193Z,25.80
2023-02-01T04:43:32.176Z,25.77
2023-02-01T04:44:32.186Z,25.80
2023-02-01T04:45:32.185Z,25.76
2023-02-01T04:46:32.302Z,25.79
2023-02-01T04:47:32.216Z,25.77
2023-02-01T04:48:32.180Z,25.79
2023-02-01T04:49:32.173Z,25.80
2023-02-01T04:50:32.178Z,25.77
2023-02-01T04:51:32.170Z,25.80
2023-02-01T04:52:32.177Z,25.79
2023-02-01T04:53:32.167Z,25.77
2023-02-01T04:54:32.175Z,25.79
2023-02-01T04:55:32.166Z,25.77
2023-02-01T04:56:32.172Z,25.77
2023-02-01T04:57:32.164Z,25.79
2023-02-01T04:58:32.171Z,25.75
2023-02-01T04:59:32.159Z,25.79
2023-02-01T05:00:32.169Z,25.80
2023-02-01T05:01:32.207Z,25.80
2023-02-01T05:02:32.166Z,25.79
2023-02-01T05:03:32.177Z,25.79
2023-02-01T05:04:32.207Z,25.82
2023-02-01T05:05:32.215Z,25.76
2023-02-01T05:06:32.161Z,25.82
2023-02-01T05:07:32.152Z,25.77
2023-02-01T05:08:32.158Z,25.73
2023-02-01T05:09:32.148Z,25.79
2023-02-01T05:10:32.155Z,25.77
2023-02-01T05:11:32.146Z,25.79
2023-02-01T05:12:32.156Z,25.77
2023-02-01T05:13:32.146Z,25.82
2023-02-01T05:14:32.156Z,25.79
2023-02-01T05:15:32.167Z,25.77
2023-02-01T05:16:32.151Z,25.82
2023-02-01T05:17:32.142Z,25.79
2023-02-01T05:18:32.149Z,25.79
2023-02-01T05:19:32.158Z,25.79
2023-02-01T05:20:32.142Z,25.80
2023-02-01T05:21:32.162Z,25.76
2023-02-01T05:22:32.140Z,25.79
2023-02-01T05:23:32.131Z,25.77
2023-02-01T05:24:32.138Z,25.82
2023-02-01T05:25:32.134Z,25.79
2023-02-01T05:26:32.157Z,25.82
2023-02-01T05:27:32.135Z,25.82
2023-02-01T05:28:32.138Z,25.82
2023-02-01T05:29:32.280Z,25.83
2023-02-01T05:30:32.163Z,25.77
2023-02-01T05:31:32.240Z,25.85
2023-02-01T05:32:32.195Z,25.83
2023-02-01T05:33:32.123Z,25.77
2023-02-01T05:34:32.129Z,25.76
2023-02-01T05:35:32.145Z,25.83
2023-02-01T05:36:32.126Z,25.82
2023-02-01T05:37:32.116Z,25.80
2023-02-01T05:38:32.123Z,25.76
2023-02-01T05:39:32.115Z,25.76
2023-02-01T05:40:32.125Z,25.77
2023-02-01T05:41:32.113Z,25.79
2023-02-01T05:42:32.124Z,25.79
2023-02-01T05:43:32.110Z,25.76
2023-02-01T05:44:32.116Z,25.79
2023-02-01T05:45:32.111Z,25.80
2023-02-01T05:46:32.196Z,25.82
2023-02-01T05:47:32.106Z,25.82
2023-02-01T05:48:32.122Z,25.75
2023-02-01T05:49:32.103Z,25.79
2023-02-01T05:50:32.115Z,25.79
2023-02-01T05:51:32.135Z,25.79
2023-02-01T05:52:32.123Z,25.75
2023-02-01T05:53:32.097Z,25.79
2023-02-01T05:54:32.205Z,25.76
2023-02-01T05:55:32.093Z,25.77
2023-02-01T05:56:32.106Z,25.76
2023-02-01T05:57:32.097Z,25.76
2023-02-01T05:58:32.111Z,25.77
2023-02-01T05:59:32.112Z,25.79
2023-02-01T06:00:32.098Z,25.80
2023-02-01T06:01:32.089Z,25.79
2023-02-01T06:02:32.102Z,25.79
2023-02-01T06:03:32.131Z,25.85
2023-02-01T06:04:32.091Z,25.82
2023-02-01T06:05:32.088Z,25.83
2023-02-01T06:06:32.091Z,25.83
2023-02-01T06:07:32.112Z,25.83
2023-02-01T06:08:32.098Z,25.80
2023-02-01T06:09:32.085Z,25.79
2023-02-01T06:10:32.088Z,25.80
2023-02-01T06:11:33.108Z,25.82
2023-02-01T06:12:32.098Z,25.77
2023-02-01T06:13:34.248Z,25.72
2023-02-01T06:14:32.081Z,25.76
2023-02-01T06:15:32.078Z,25.76
2023-02-01T06:16:32.079Z,25.77
2023-02-01T06:17:32.071Z,25.76
2023-02-01T06:18:32.081Z,25.79
2023-02-01T06:19:32.068Z,25.73
2023-02-01T06:20:32.080Z,25.80
2023-02-01T06:21:32.069Z,25.85
2023-02-01T06:22:32.076Z,25.82
2023-02-01T06:23:32.093Z,25.87
2023-02-01T06:24:32.073Z,25.80
2023-02-01T06:25:32.061Z,25.79
2023-02-01T06:26:32.103Z,25.87
2023-02-01T06:27:32.060Z,25.87
2023-02-01T06:28:32.066Z,25.85
2023-02-01T06:29:32.059Z,25.88
2023-02-01T06:30:32.064Z,25.90
2023-02-01T06:31:32.190Z,25.87
2023-02-01T06:32:32.064Z,25.90
2023-02-01T06:33:32.052Z,25.87
2023-02-01T06:34:32.058Z,25.90
2023-02-01T06:35:32.051Z,25.90
2023-02-01T06:36:32.065Z,25.94
2023-02-01T06:37:32.048Z,25.91
2023-02-01T06:38:32.070Z,25.91
2023-02-01T06:39:32.075Z,25.91
2023-02-01T06:40:32.061Z,25.90
2023-02-01T06:41:32.045Z,25.94
2023-02-01T06:42:32.050Z,25.91
2023-02-01T06:43:32.043Z,25.99
2023-02-01T06:44:32.049Z,25.94
2023-02-01T06:45:32.041Z,25.95
2023-02-01T06:46:32.075Z,25.97
2023-02-01T06:47:32.038Z,25.99
2023-02-01T06:48:32.077Z,26.02
2023-02-01T06:49:32.037Z,25.99
2023-02-01T06:50:32.043Z,25.98
2023-02-01T06:51:32.033Z,25.97
2023-02-01T06:52:32.038Z,25.97
2023-02-01T06:53:32.031Z,25.94
2023-02-01T06:54:32.046Z,26.02
2023-02-01T06:55:32.061Z,26.10
2023-02-01T06:56:32.036Z,26.12
2023-02-01T06:57:32.035Z,26.06
2023-02-01T06:58:32.040Z,26.12
2023-02-01T06:59:32.032Z,26.06
2023-02-01T07:00:32.089Z,26.13
2023-02-01T07:01:32.024Z,26.13
2023-02-01T07:02:32.030Z,26.07
2023-02-01T07:03:32.025Z,26.13
2023-02-01T07:04:32.027Z,26.10
2023-02-01T07:05:32.021Z,26.13
2023-02-01T07:06:32.024Z,26.07
2023-02-01T07:07:32.024Z,26.17
2023-02-01T07:08:32.027Z,26.21
2023-02-01T07:09:32.015Z,26.12
2023-02-01T07:10:32.030Z,26.20
2023-02-01T07:11:32.096Z,26.06
2023-02-01T07:12:32.039Z,26.25
2023-02-01T07:13:32.023Z,26.25
2023-02-01T07:14:32.024Z,26.23
2023-02-01T07:15:32.009Z,26.25
2023-02-01T07:16:32.097Z,26.26
2023-02-01T07:17:32.011Z,26.25
2023-02-01T07:18:32.025Z,26.25
2023-02-01T07:19:32.011Z,26.18
2023-02-01T07:20:32.013Z,26.23
2023-02-01T07:21:32.008Z,26.25
2023-02-01T07:22:32.014Z,26.28
2023-02-01T07:23:32.002Z,26.30
2023-02-01T07:24:32.017Z,26.28
2023-02-01T07:25:32.009Z,26.25
2023-02-01T07:26:32.030Z,26.18
2023-02-01T07:27:32.028Z,26.35
2023-02-01T07:28:32.016Z,26.28
2023-02-01T07:29:32.000Z,26.32
2023-02-01T07:30:32.037Z,26.35
2023-02-01T07:31:32.005Z,26.36
2023-02-01T07:32:32.105Z,26.39
2023-02-01T07:33:31.999Z,26.29
2023-02-01T07:34:32.014Z,26.36
2023-02-01T07:35:32.015Z,26.39
2023-02-01T07:36:32.003Z,26.33
2023-02-01T07:37:32.009Z,26.40
2023-02-01T07:38:31.998Z,26.37
2023-02-01T07:39:31.997Z,26.40
2023-02-01T07:40:32.024Z,26.39
2023-02-01T07:41:31.996Z,26.39
2023-02-01T07:42:32.010Z,26.45
2023-02-01T07:43:32.020Z,26.37
2023-02-01T07:44:31.995Z,26.44
2023-02-01T07:45:32.042Z,26.37
2023-02-01T07:46:31.986Z,26.36
2023-02-01T07:47:31.994Z,26.43
2023-02-01T07:48:31.994Z,26.39
2023-02-01T07:49:31.994Z,26.39
2023-02-01T07:50:31.989Z,26.40
2023-02-01T07:51:31.992Z,26.37
2023-02-01T07:52:31.982Z,26.43
2023-02-01T07:53:31.987Z,26.43
2023-02-01T07:54:31.987Z,26.40
2023-02-01T07:55:31.985Z,26.43
2023-02-01T07:56:31.980Z,26.39
2023-02-01T07:57:31.987Z,26.37
2023-02-01T07:58:31.982Z,26.44
2023-02-01T07:59:32.029Z,26.39
2023-02-01T08:00:31.975Z,26.37
2023-02-01T08:01:31.986Z,26.36
2023-02-01T08:02:32.115Z,26.39
2023-02-01T08:03:31.983Z,26.40
2023-02-01T08:04:31.972Z,26.40
2023-02-01T08:05:31.977Z,26.40
2023-02-01T08:06:31.995Z,26.45
2023-02-01T08:07:31.982Z,26.39
2023-02-01T08:08:31.970Z,26.39
2023-02-01T08:09:31.976Z,26.44
2023-02-01T08:10:31.981Z,26.45
2023-02-01T08:11:31.994Z,26.43
2023-02-01T08:12:31.966Z,26.44
2023-02-01T08:13:31.980Z,26.45
2023-02-01T08:14:31.982Z,26.44
2023-02-01T08:15:32.000Z,26.44
2023-02-01T08:16:32.029Z,26.47
2023-02-01T08:17:31.971Z,26.45
2023-02-01T08:18:31.969Z,26.43
2023-02-01T08:19:31.967Z,26.45
2023-02-01T08:20:31.961Z,26.47
2023-02-01T08:21:31.967Z,26.43
2023-02-01T08:22:31.963Z,26.47
2023-02-01T08:23:31.965Z,26.48
2023-02-01T08:24:31.957Z,26.45
2023-02-01T08:25:31.964Z,26.47
2023-02-01T08:26:31.981Z,26.47
2023-02-01T08:27:31.964Z,26.47
2023-02-01T08:28:31.954Z,26.43
2023-02-01T08:29:31.968Z,26.40
2023-02-01T08:30:31.962Z,26.39
2023-02-01T08:31:32.082Z,26.45
2023-02-01T08:32:31.952Z,26.50
2023-02-01T08:33:31.958Z,26.48
2023-02-01T08:34:33.627Z,26.45
2023-02-01T08:35:42.782Z,26.48
2023-02-01T08:36:31.956Z,26.47
2023-02-01T08:37:31.977Z,26.45
2023-02-01T08:38:31.948Z,26.45
2023-02-01T08:39:31.951Z,26.45
2023-02-01T08:40:31.948Z,26.45
2023-02-01T08:41:31.960Z,26.47
2023-02-01T08:42:31.957Z,26.50
2023-02-01T08:43:31.955Z,26.47
2023-02-01T08:44:31.946Z,26.44
2023-02-01T08:45:31.977Z,26.43
2023-02-01T08:46:31.943Z,26.44
2023-02-01T08:47:31.976Z,26.44
2023-02-01T08:48:31.943Z,26.47
2023-02-01T08:49:31.958Z,26.43
2023-02-01T08:50:31.949Z,26.48
2023-02-01T08:51:31.960Z,26.48
2023-02-01T08:52:31.939Z,26.45
2023-02-01T08:53:31.944Z,26.43
2023-02-01T08:54:31.939Z,26.48
2023-02-01T08:55:31.948Z,26.45
2023-02-01T08:56:31.972Z,26.45
2023-02-01T08:57:31.952Z,26.45
2023-02-01T08:58:31.948Z,26.48
2023-02-01T08:59:31.940Z,26.48
2023-02-01T09:00:31.935Z,26.45
2023-02-01T09:01:32.039Z,26.47
2023-02-01T09:02:31.932Z,26.40
2023-02-01T09:03:31.967Z,26.48
2023-02-01T09:04:31.932Z,26.51
2023-02-01T09:05:47.462Z,26.48
2023-02-01T09:06:31.934Z,26.51
2023-02-01T09:07:31.936Z,26.48
2023-02-01T09:08:31.935Z,26.51
2023-02-01T09:09:31.944Z,26.43
2023-02-01T09:10:35.219Z,26.57
2023-02-01T09:11:31.944Z,26.50
2023-02-01T09:12:31.928Z,26.60
2023-02-01T09:13:31.966Z,26.54
2023-02-01T09:14:31.926Z,26.50
2023-02-01T09:15:31.984Z,26.51
2023-02-01T09:16:31.936Z,26.57
2023-02-01T09:17:31.935Z,26.62
2023-02-01T09:18:31.922Z,26.51
2023-02-01T09:19:31.952Z,26.54
2023-02-01T09:20:31.929Z,26.55
2023-02-01T09:21:31.926Z,26.57
2023-02-01T09:22:31.938Z,26.57
2023-02-01T09:23:31.960Z,26.54
2023-02-01T09:24:31.920Z,26.52
2023-02-01T09:25:31.939Z,26.51
2023-02-01T09:26:33.101Z,26.57
2023-02-01T09:27:31.923Z,26.51
2023-02-01T09:28:31.916Z,26.54
2023-02-01T09:29:31.924Z,26.58
2023-02-01T09:30:31.916Z,26.58
2023-02-01T09:31:32.232Z,26.58
2023-02-01T09:32:32.007Z,26.57
2023-02-01T09:33:31.920Z,26.60
2023-02-01T09:34:31.914Z,26.57
2023-02-01T09:35:31.953Z,26.57
2023-02-01T09:36:31.914Z,26.55
2023-02-01T09:37:31.917Z,26.55
2023-02-01T09:38:33.068Z,26.54
2023-02-01T09:39:31.930Z,26.51
2023-02-01T09:40:31.964Z,26.52
2023-02-01T09:41:31.917Z,26.54
2023-02-01T09:42:31.907Z,26.52
2023-02-01T09:43:31.913Z,26.54
2023-02-01T09:44:42.375Z,26.51
2023-02-01T09:45:31.925Z,26.57
2023-02-01T09:46:31.991Z,26.54
2023-02-01T09:47:31.913Z,26.51
2023-02-01T09:48:31.902Z,26.57
2023-02-01T09:49:31.912Z,26.57
2023-02-01T09:50:31.905Z,26.55
2023-02-01T09:51:31.931Z,26.51
2023-02-01T09:52:31.908Z,26.57
2023-02-01T09:53:31.907Z,26.51
2023-02-01T09:54:31.903Z,26.51
2023-02-01T09:55:31.914Z,26.62
2023-02-01T09:56:31.898Z,26.51
2023-02-01T09:57:31.905Z,26.54
2023-02-01T09:58:31.933Z,26.58
2023-02-01T09:59:31.910Z,26.57
2023-02-01T10:00:31.908Z,26.51
2023-02-01T10:01:31.919Z,26.55
2023-02-01T10:02:31.892Z,26.58
2023-02-01T10:03:32.070Z,26.54
2023-02-01T10:04:31.896Z,26.54
2023-02-01T10:05:31.900Z,26.57
2023-02-01T10:06:31.898Z,26.52
2023-02-01T10:07:31.917Z,26.51
2023-02-01T10:08:31.892Z,26.52
2023-02-01T10:09:31.912Z,26.66
2023-02-01T10:10:31.909Z,26.50
2023-02-01T10:11:31.900Z,26.54
2023-02-01T10:12:31.895Z,26.60
2023-02-01T10:13:31.913Z,26.58
2023-02-01T10:14:31.890Z,26.52
2023-02-01T10:15:31.895Z,26.65
2023-02-01T10:16:32.003Z,26.50
2023-02-01T10:17:31.892Z,26.62
2023-02-01T10:18:31.890Z,26.55
2023-02-01T10:19:31.892Z,26.54
2023-02-01T10:20:31.894Z,26.55
2023-02-01T10:21:31.895Z,26.54
2023-02-01T10:22:55.764Z,26.51
2023-02-01T10:23:34.574Z,26.52
2023-02-01T10:24:31.887Z,26.57
2023-02-01T10:25:31.888Z,26.51
2023-02-01T10:26:31.914Z,26.57
2023-02-01T10:27:31.888Z,26.57
2023-02-01T10:28:31.878Z,26.52
2023-02-01T10:29:31.898Z,26.57
2023-02-01T10:30:34.635Z,26.50
2023-02-01T10:31:31.965Z,26.60
2023-02-01T10:32:31.887Z,26.54
2023-02-01T10:33:31.887Z,26.55
2023-02-01T10:34:31.876Z,26.51
2023-02-01T10:35:31.901Z,26.52
2023-02-01T10:36:31.880Z,26.50
2023-02-01T10:37:31.881Z,26.48
2023-02-01T10:38:31.898Z,26.50
2023-02-01T10:39:31.906Z,26.45
2023-02-01T10:40:31.883Z,26.48
2023-02-01T10:41:31.878Z,26.54
2023-02-01T10:42:31.871Z,26.51
2023-02-01T10:43:31.910Z,26.54
2023-02-01T10:44:31.871Z,26.55
2023-02-01T10:45:31.876Z,26.58
2023-02-01T10:46:31.983Z,26.62
2023-02-01T10:47:31.884Z,26.54
2023-02-01T10:48:31.871Z,26.57
2023-02-01T10:49:31.879Z,26.58
2023-02-01T10:50:31.869Z,26.57
2023-02-01T10:51:31.875Z,26.57
2023-02-01T10:52:31.874Z,26.54
2023-02-01T10:53:31.871Z,26.57
2023-02-01T10:54:31.864Z,26.55
2023-02-01T10:55:31.918Z,26.60
2023-02-01T10:56:31.861Z,26.58
2023-02-01T10:57:31.868Z,26.52
2023-02-01T10:58:31.867Z,26.55
2023-02-01T10:59:31.867Z,26.58
2023-02-01T11:00:31.860Z,26.55
2023-02-01T11:01:31.925Z,26.52
2023-02-01T11:02:31.922Z,26.52
2023-02-01T11:03:31.863Z,26.55
2023-02-01T11:04:31.857Z,26.54
2023-02-01T11:05:31.877Z,26.51
2023-02-01T11:06:31.861Z,26.54
2023-02-01T11:07:31.866Z,26.54
2023-02-01T11:08:31.877Z,26.50
2023-02-01T11:09:31.863Z,26.48
2023-02-01T11:10:31.855Z,26.47
2023-02-01T11:11:31.887Z,26.48
2023-02-01T11:12:31.868Z,26.50
2023-02-01T11:13:31.859Z,26.52
2023-02-01T11:14:31.850Z,26.45
2023-02-01T11:15:31.856Z,26.51
2023-02-01T11:16:31.934Z,26.57
2023-02-01T11:17:31.857Z,26.50
2023-02-01T11:18:31.851Z,26.52
2023-02-01T11:19:31.852Z,26.48
2023-02-01T11:20:31.855Z,26.44
2023-02-01T11:21:31.861Z,26.54
2023-02-01T11:22:31.858Z,26.51
2023-02-01T11:23:31.852Z,26.50
2023-02-01T11:24:31.843Z,26.48
2023-02-01T11:25:31.849Z,26.48
2023-02-01T11:26:31.905Z,26.51
2023-02-01T11:27:32.472Z,26.50
2023-02-01T11:28:31.848Z,26.44
2023-02-01T11:29:31.847Z,26.50
2023-02-01T11:30:31.863Z,26.52
2023-02-01T11:31:31.889Z,26.54
2023-02-01T11:32:31.845Z,26.48
2023-02-01T11:33:31.846Z,26.57
2023-02-01T11:34:31.835Z,26.52
2023-02-01T11:35:31.843Z,26.57
2023-02-01T11:36:31.839Z,26.54
2023-02-01T11:37:31.842Z,26.58
2023-02-01T11:38:31.856Z,26.62
2023-02-01T11:39:31.841Z,26.66
2023-02-01T11:40:31.838Z,26.57
2023-02-01T11:41:31.843Z,26.51
2023-02-01T11:42:31.834Z,26.60
2023-02-01T11:43:31.861Z,26.51
2023-02-01T11:44:31.848Z,26.65
2023-02-01T11:45:31.842Z,26.66
2023-02-01T11:46:31.847Z,26.57
2023-02-01T11:47:31.839Z,26.55
2023-02-01T11:48:31.827Z,26.51
2023-02-01T11:49:31.844Z,26.69
2023-02-01T11:50:32.035Z,26.60
2023-02-01T11:51:31.836Z,26.65
2023-02-01T11:52:31.912Z,26.62
2023-02-01T11:53:31.826Z,26.57
2023-02-01T11:54:31.833Z,26.63
2023-02-01T11:55:31.824Z,26.60
2023-02-01T11:56:31.841Z,26.60
2023-02-01T11:57:31.825Z,26.60
2023-02-01T11:58:31.861Z,26.65
2023-02-01T11:59:31.847Z,26.62
2023-02-01T12:00:31.854Z,26.62
2023-02-01T12:01:31.821Z,26.72
2023-02-01T12:02:31.830Z,26.69
2023-02-01T12:03:31.883Z,26.70
2023-02-01T12:04:31.830Z,26.70
2023-02-01T12:05:31.842Z,26.76
2023-02-01T12:06:31.838Z,26.80
2023-02-01T12:07:31.819Z,26.73
2023-02-01T12:08:31.827Z,26.66
2023-02-01T12:09:31.818Z,26.73
2023-02-01T12:10:31.832Z,26.77
2023-02-01T12:11:31.813Z,26.72
2023-02-01T12:12:31.825Z,26.72
2023-02-01T12:13:31.815Z,26.70
2023-02-01T12:14:31.823Z,26.75
2023-02-01T12:15:31.838Z,26.69
2023-02-01T12:16:31.893Z,26.75
2023-02-01T12:17:31.817Z,26.67
2023-02-01T12:18:31.822Z,26.70
2023-02-01T12:19:31.821Z,26.70
2023-02-01T12:20:31.825Z,26.72
2023-02-01T12:21:31.812Z,26.73
2023-02-01T12:22:31.834Z,26.77
2023-02-01T12:23:31.811Z,26.72
2023-02-01T12:24:31.818Z,26.80
2023-02-01T12:25:31.807Z,26.77
2023-02-01T12:26:31.851Z,26.69
2023-02-01T12:27:31.808Z,26.80
2023-02-01T12:28:31.827Z,26.76
2023-02-01T12:29:31.809Z,26.73
2023-02-01T12:30:31.840Z,26.80
2023-02-01T12:31:31.882Z,26.76
2023-02-01T12:32:31.817Z,26.80
2023-02-01T12:33:31.807Z,26.76
2023-02-01T12:34:31.813Z,26.81
2023-02-01T12:35:31.807Z,26.80
2023-02-01T12:36:31.815Z,26.80
2023-02-01T12:37:31.804Z,26.81
2023-02-01T12:38:31.811Z,26.89
2023-02-01T12:39:31.806Z,26.80
2023-02-01T12:40:31.808Z,26.85
2023-02-01T12:41:31.801Z,26.85
2023-02-01T12:42:31.808Z,26.80
2023-02-01T12:43:31.799Z,26.80
2023-02-01T12:44:31.811Z,26.82
2023-02-01T12:45:31.914Z,26.77
2023-02-01T12:46:31.807Z,26.82
2023-02-01T12:47:31.830Z,26.81
2023-02-01T12:48:31.805Z,26.84
2023-02-01T12:49:31.801Z,26.81
2023-02-01T12:50:31.805Z,26.85
2023-02-01T12:51:31.794Z,26.92
2023-02-01T12:52:31.803Z,26.80
2023-02-01T12:53:31.813Z,26.84